Time;durP1;ratioP1;P1;durP2;ratioP2;P2;SDS_P1;SDS_P2;PMS_P1;PMS_P2;Temp;Humidity;BMP_temperature;BMP_pressure;BME280_temperature;BME280_humidity;BME280_pressure;Samples;Min_cycle;Max_cycle;Signal;HPM_P1;HPM_P2
2023/12/25 00:01:38;;;;;;;;;;;13.50;99.90;;;;;;7333153;19;109055;-72
2023/12/25 00:04:08;;;;;;;;;;;13.60;99.90;;;;;;7334964;19;128874;-72
2023/12/25 00:06:37;;;;;;;;;;;13.60;99.90;;;;;;7331931;19;109978;-73
2023/12/25 00:09:04;;;;;;;;;;;13.60;99.90;;;;;;7330999;19;109774;-73
2023/12/25 00:11:31;;;;;;;;;;;13.60;99.90;;;;;;7333596;19;110526;-73
2023/12/25 00:13:58;;;;;;;;;;;13.60;99.90;;;;;;7331760;19;110064;-72
2023/12/25 00:16:26;;;;;;;;;;;13.60;99.90;;;;;;7333609;19;111355;-72
2023/12/25 00:18:55;;;;;;;;;;;13.60;99.90;;;;;;7335246;19;109260;-72
2023/12/25 00:21:23;;;;;;;;;;;13.60;99.90;;;;;;7335758;19;109458;-72
2023/12/25 00:23:54;;;;;;;;;;;13.60;99.90;;;;;;7332382;19;109126;-72
2023/12/25 00:26:21;;;;;;;;;;;13.60;99.90;;;;;;7340973;19;108915;-72
2023/12/25 00:28:48;;;;;;;;;;;13.60;99.90;;;;;;7332999;19;109394;-72
2023/12/25 00:31:15;;;;;;;;;;;13.60;99.90;;;;;;7334144;19;109031;-72
2023/12/25 00:33:43;;;;;;;;;;;13.60;99.90;;;;;;7327695;19;109207;-72
2023/12/25 00:36:13;;;;;;;;;;;13.60;99.90;;;;;;7333294;19;111050;-72
2023/12/25 00:38:40;;;;;;;;;;;13.60;99.90;;;;;;7331902;19;108846;-70
2023/12/25 00:41:07;;;;;;;;;;;13.60;99.90;;;;;;7334757;19;109175;-73
2023/12/25 00:43:34;;;;;;;;;;;13.70;99.90;;;;;;7328921;19;109082;-72
2023/12/25 00:46:07;;;;;;;;;;;13.60;99.90;;;;;;7331926;19;108716;-72
2023/12/25 00:48:34;;;;;;;;;;;13.70;99.90;;;;;;7338741;19;109381;-70
2023/12/25 00:51:01;;;;;;;;;;;13.70;99.90;;;;;;7330359;19;109396;-72
2023/12/25 00:53:29;;;;;;;;;;;13.70;99.90;;;;;;7331910;19;109396;-71
2023/12/25 00:55:56;;;;;;;;;;;13.70;99.90;;;;;;7329837;19;109894;-70
2023/12/25 00:58:24;;;;;;;;;;;13.70;99.90;;;;;;7331268;19;108767;-71
2023/12/25 01:00:51;;;;;;;;;;;13.70;99.90;;;;;;7329333;19;110560;-71
2023/12/25 01:03:18;;;;;;;;;;;13.70;99.90;;;;;;7332435;19;109445;-70
2023/12/25 01:05:45;;;;;;;;;;;13.70;99.90;;;;;;7331638;19;108647;-70
2023/12/25 01:08:12;;;;;;;;;;;13.70;99.90;;;;;;7333925;19;109246;-71
2023/12/25 01:10:40;;;;;;;;;;;13.70;99.90;;;;;;7336381;19;108939;-71
2023/12/25 01:13:07;;;;;;;;;;;13.70;99.90;;;;;;7332441;19;109165;-71
2023/12/25 01:15:34;;;;;;;;;;;13.80;99.90;;;;;;7332708;19;109658;-71
2023/12/25 01:18:01;;;;;;;;;;;13.70;99.90;;;;;;7329863;19;109300;-71
2023/12/25 01:20:29;;;;;;;;;;;13.80;99.90;;;;;;7331627;19;108603;-71
2023/12/25 01:22:56;;;;;;;;;;;13.70;99.90;;;;;;7333317;19;109096;-71
2023/12/25 01:25:23;;;;;;;;;;;13.70;99.90;;;;;;7329053;19;110965;-71
2023/12/25 01:27:50;;;;;;;;;;;13.70;99.90;;;;;;7332922;19;109979;-72
2023/12/25 01:30:18;;;;;;;;;;;13.70;99.90;;;;;;7328776;19;109088;-72
2023/12/25 01:32:45;;;;;;;;;;;13.70;99.90;;;;;;7335911;19;109693;-71
2023/12/25 01:35:12;;;;;;;;;;;13.70;99.90;;;;;;7327793;19;109706;-72
2023/12/25 01:37:40;;;;;;;;;;;13.70;99.90;;;;;;7329509;19;113154;-71
2023/12/25 01:40:07;;;;;;;;;;;13.70;99.90;;;;;;7327893;19;110384;-71
2023/12/25 01:42:34;;;;;;;;;;;13.70;99.90;;;;;;7331482;19;111739;-72
2023/12/25 01:45:01;;;;;;;;;;;13.70;99.90;;;;;;7333979;19;108957;-71
2023/12/25 01:47:29;;;;;;;;;;;13.70;99.90;;;;;;7333764;19;110537;-71
2023/12/25 01:49:56;;;;;;;;;;;13.70;99.90;;;;;;7331066;19;110813;-71
2023/12/25 01:52:23;;;;;;;;;;;13.70;99.90;;;;;;7339286;19;108422;-72
2023/12/25 01:54:50;;;;;;;;;;;13.60;99.90;;;;;;7331381;19;109687;-71
2023/12/25 01:57:17;;;;;;;;;;;13.60;99.90;;;;;;7332587;19;109958;-71
2023/12/25 01:59:44;;;;;;;;;;;13.60;99.90;;;;;;7328146;19;109877;-72
2023/12/25 02:02:12;;;;;;;;;;;13.60;99.90;;;;;;7328363;19;110127;-72
2023/12/25 02:04:40;;;;;;;;;;;13.60;99.90;;;;;;7327386;19;109867;-72
2023/12/25 02:07:08;;;;;;;;;;;13.60;99.90;;;;;;7325801;19;108633;-72
2023/12/25 02:09:35;;;;;;;;;;;13.60;99.90;;;;;;7328322;19;110353;-72
2023/12/25 02:12:03;;;;;;;;;;;13.60;99.90;;;;;;7335130;19;110315;-72
2023/12/25 02:14:30;;;;;;;;;;;13.60;99.90;;;;;;7339460;19;110725;-72
2023/12/25 02:16:57;;;;;;;;;;;13.60;99.90;;;;;;7334148;19;110464;-72
2023/12/25 02:19:41;;;;;;;;;;;13.60;99.90;;;;;;7333468;19;109908;-72
2023/12/25 02:22:08;;;;;;;;;;;13.60;99.90;;;;;;7334221;19;109587;-73
2023/12/25 02:24:36;;;;;;;;;;;13.50;99.90;;;;;;7337582;19;109220;-71
2023/12/25 02:27:03;;;;;;;;;;;13.50;99.90;;;;;;7336399;19;109118;-72
2023/12/25 02:29:32;;;;;;;;;;;13.50;99.90;;;;;;7334736;19;112649;-72
2023/12/25 02:31:59;;;;;;;;;;;13.50;99.90;;;;;;7332710;19;110616;-72
2023/12/25 02:34:26;;;;;;;;;;;13.60;99.90;;;;;;7336570;19;111133;-72
2023/12/25 02:36:53;;;;;;;;;;;13.60;99.90;;;;;;7334658;19;112210;-72
2023/12/25 02:39:20;;;;;;;;;;;13.60;99.90;;;;;;7337880;19;109116;-72
2023/12/25 02:41:47;;;;;;;;;;;13.60;99.90;;;;;;7341426;19;109645;-72
2023/12/25 02:44:16;;;;;;;;;;;13.60;99.90;;;;;;7340901;19;110239;-71
2023/12/25 02:46:43;;;;;;;;;;;13.60;99.90;;;;;;7335960;19;109175;-71
2023/12/25 02:49:10;;;;;;;;;;;13.60;99.90;;;;;;7330815;19;109893;-72
2023/12/25 02:51:37;;;;;;;;;;;13.60;99.90;;;;;;7337351;19;109294;-72
2023/12/25 02:54:05;;;;;;;;;;;13.70;99.90;;;;;;7337915;19;109434;-72
2023/12/25 02:56:34;;;;;;;;;;;13.60;99.90;;;;;;7330926;19;110186;-71
2023/12/25 02:59:01;;;;;;;;;;;13.60;99.90;;;;;;7341237;19;109774;-71
2023/12/25 03:01:28;;;;;;;;;;;13.70;99.90;;;;;;7336372;19;109633;-71
2023/12/25 03:03:55;;;;;;;;;;;13.70;99.90;;;;;;7333148;19;110943;-73
2023/12/25 03:06:23;;;;;;;;;;;13.70;99.90;;;;;;7334234;19;111808;-71
2023/12/25 03:08:50;;;;;;;;;;;13.70;99.90;;;;;;7336152;19;109311;-71
2023/12/25 03:11:17;;;;;;;;;;;13.70;99.90;;;;;;7334614;19;109254;-71
2023/12/25 03:13:45;;;;;;;;;;;13.70;99.90;;;;;;7336991;19;112949;-75
2023/12/25 03:16:12;;;;;;;;;;;13.80;99.90;;;;;;7337608;19;109206;-76
2023/12/25 03:18:39;;;;;;;;;;;13.80;99.90;;;;;;7335794;19;110982;-73
2023/12/25 03:21:07;;;;;;;;;;;13.80;99.90;;;;;;7339782;19;108582;-74
2023/12/25 03:23:34;;;;;;;;;;;13.80;99.90;;;;;;7333090;19;108576;-73
2023/12/25 03:26:02;;;;;;;;;;;13.80;99.90;;;;;;7335528;19;110215;-75
2023/12/25 03:28:29;;;;;;;;;;;13.70;99.90;;;;;;7336602;19;110093;-76
2023/12/25 03:30:56;;;;;;;;;;;13.70;99.90;;;;;;7336824;19;108880;-74
2023/12/25 03:33:24;;;;;;;;;;;13.80;99.90;;;;;;7334961;19;110297;-75
2023/12/25 03:35:51;;;;;;;;;;;13.80;99.90;;;;;;7330931;19;110610;-73
2023/12/25 03:38:22;;;;;;;;;;;13.80;99.90;;;;;;7335530;19;109108;-73
2023/12/25 03:40:50;;;;;;;;;;;13.80;99.90;;;;;;7333225;19;108895;-73
2023/12/25 03:43:17;;;;;;;;;;;13.70;99.90;;;;;;7341117;19;109517;-72
2023/12/25 03:45:44;;;;;;;;;;;13.70;99.90;;;;;;7334981;19;110249;-72
2023/12/25 03:48:11;;;;;;;;;;;13.80;99.90;;;;;;7331543;19;109853;-73
2023/12/25 03:50:39;;;;;;;;;;;13.70;99.90;;;;;;7335001;19;109613;-73
2023/12/25 03:53:12;;;;;;;;;;;13.70;99.90;;;;;;7333595;19;110492;-73
2023/12/25 03:55:40;;;;;;;;;;;13.70;99.90;;;;;;7331019;19;109911;-73
2023/12/25 03:58:07;;;;;;;;;;;13.70;99.90;;;;;;7336701;19;109253;-72
2023/12/25 04:00:35;;;;;;;;;;;13.70;99.90;;;;;;7331645;19;109848;-73
2023/12/25 04:03:02;;;;;;;;;;;13.70;99.90;;;;;;7337010;19;109764;-72
2023/12/25 04:05:30;;;;;;;;;;;13.70;99.90;;;;;;7334183;19;109320;-72
2023/12/25 04:07:57;;;;;;;;;;;13.60;99.90;;;;;;7333627;19;109840;-73
2023/12/25 04:10:24;;;;;;;;;;;13.60;99.90;;;;;;7335129;19;109335;-72
2023/12/25 04:12:51;;;;;;;;;;;13.60;99.90;;;;;;7332417;19;112045;-72
2023/12/25 04:15:19;;;;;;;;;;;13.70;99.90;;;;;;7332876;19;109998;-73
2023/12/25 04:17:46;;;;;;;;;;;13.60;99.90;;;;;;7332595;19;109682;-73
2023/12/25 04:20:13;;;;;;;;;;;13.60;99.90;;;;;;7333725;19;110018;-73
2023/12/25 04:22:40;;;;;;;;;;;13.60;99.90;;;;;;7336039;19;109398;-73
2023/12/25 04:25:07;;;;;;;;;;;13.60;99.90;;;;;;7337755;19;108588;-73
2023/12/25 04:27:35;;;;;;;;;;;13.60;99.90;;;;;;7332600;19;109659;-73
2023/12/25 04:30:02;;;;;;;;;;;13.60;99.90;;;;;;7331711;19;109333;-73
2023/12/25 04:32:29;;;;;;;;;;;13.50;99.90;;;;;;7335319;19;108666;-72
2023/12/25 04:34:57;;;;;;;;;;;13.60;99.90;;;;;;7331386;19;109579;-73
2023/12/25 04:37:24;;;;;;;;;;;13.60;99.90;;;;;;7332166;19;109977;-73
2023/12/25 04:39:51;;;;;;;;;;;13.60;99.90;;;;;;7334199;19;111089;-73
2023/12/25 04:42:21;;;;;;;;;;;13.60;99.90;;;;;;7331436;19;109843;-73
2023/12/25 04:44:48;;;;;;;;;;;13.60;99.90;;;;;;7335349;19;108743;-73
2023/12/25 04:47:15;;;;;;;;;;;13.50;99.90;;;;;;7335993;19;108842;-73
2023/12/25 04:49:43;;;;;;;;;;;13.50;99.90;;;;;;7331593;19;113327;-73
2023/12/25 04:52:10;;;;;;;;;;;13.50;99.90;;;;;;7329872;19;109774;-73
2023/12/25 04:54:37;;;;;;;;;;;13.50;99.90;;;;;;7330679;19;109145;-73
2023/12/25 04:57:04;;;;;;;;;;;13.50;99.90;;;;;;7328283;19;111092;-73
2023/12/25 04:59:31;;;;;;;;;;;13.60;99.90;;;;;;7332637;19;109340;-73
2023/12/25 05:02:00;;;;;;;;;;;13.50;99.90;;;;;;7325685;19;109294;-73
2023/12/25 05:04:27;;;;;;;;;;;13.50;99.90;;;;;;7332201;19;112260;-74
2023/12/25 05:06:54;;;;;;;;;;;13.50;99.90;;;;;;7330503;19;110347;-73
2023/12/25 05:09:21;;;;;;;;;;;13.50;99.90;;;;;;7336306;19;109631;-73
2023/12/25 05:11:48;;;;;;;;;;;13.50;99.90;;;;;;7328719;19;110170;-74
2023/12/25 05:14:15;;;;;;;;;;;13.50;99.90;;;;;;7334725;19;109234;-73
2023/12/25 05:16:43;;;;;;;;;;;13.50;99.90;;;;;;7333173;19;108872;-73
2023/12/25 05:19:12;;;;;;;;;;;13.50;99.90;;;;;;7330523;19;108918;-73
2023/12/25 05:21:39;;;;;;;;;;;13.50;99.90;;;;;;7329937;19;109556;-74
2023/12/25 05:24:07;;;;;;;;;;;13.50;99.90;;;;;;7327841;19;110043;-73
2023/12/25 05:26:34;;;;;;;;;;;13.50;99.90;;;;;;7330538;19;109434;-73
2023/12/25 05:29:01;;;;;;;;;;;13.50;99.90;;;;;;7330984;19;110074;-73
2023/12/25 05:31:28;;;;;;;;;;;13.50;99.90;;;;;;7334504;19;109033;-73
2023/12/25 05:33:55;;;;;;;;;;;13.50;99.90;;;;;;7330519;19;109441;-72
2023/12/25 05:36:23;;;;;;;;;;;13.40;99.90;;;;;;7331317;19;109161;-73
2023/12/25 05:38:52;;;;;;;;;;;13.50;99.90;;;;;;7330413;19;109129;-73
2023/12/25 05:41:36;;;;;;;;;;;13.50;99.90;;;;;;7329693;19;109637;-73
2023/12/25 05:44:06;;;;;;;;;;;13.50;99.90;;;;;;7334551;19;108847;-74
2023/12/25 05:46:33;;;;;;;;;;;13.50;99.90;;;;;;7335197;19;108620;-74
2023/12/25 05:49:00;;;;;;;;;;;13.40;99.90;;;;;;7335908;19;113209;-72
2023/12/25 05:51:27;;;;;;;;;;;13.40;99.90;;;;;;7339587;19;109148;-74
2023/12/25 05:53:54;;;;;;;;;;;13.40;99.90;;;;;;7341858;19;109460;-74
2023/12/25 05:56:22;;;;;;;;;;;13.40;99.90;;;;;;7337063;19;108762;-73
2023/12/25 05:58:50;;;;;;;;;;;13.40;99.90;;;;;;7333989;19;111146;-74
2023/12/25 06:01:17;;;;;;;;;;;13.40;99.90;;;;;;7334887;19;109667;-73
2023/12/25 06:03:44;;;;;;;;;;;13.40;99.90;;;;;;7337760;19;108783;-74
2023/12/25 06:06:12;;;;;;;;;;;13.40;99.90;;;;;;7336074;19;108733;-74
2023/12/25 06:08:39;;;;;;;;;;;13.30;99.90;;;;;;7338867;19;110434;-75
2023/12/25 06:11:06;;;;;;;;;;;13.40;99.90;;;;;;7337002;19;108976;-75
2023/12/25 06:13:33;;;;;;;;;;;13.40;99.90;;;;;;7342507;19;109498;-74
2023/12/25 06:16:00;;;;;;;;;;;13.40;99.90;;;;;;7334156;19;108812;-74
2023/12/25 06:18:28;;;;;;;;;;;13.30;99.90;;;;;;7334330;19;108707;-75
2023/12/25 06:20:55;;;;;;;;;;;13.30;99.90;;;;;;7336422;19;109423;-73
2023/12/25 06:23:25;;;;;;;;;;;13.30;99.90;;;;;;7337621;19;108791;-73
2023/12/25 06:25:52;;;;;;;;;;;13.30;99.90;;;;;;7333276;19;108968;-74
2023/12/25 06:28:19;;;;;;;;;;;13.30;99.90;;;;;;7333630;19;112044;-74
2023/12/25 06:30:46;;;;;;;;;;;13.30;99.90;;;;;;7335018;19;110154;-74
2023/12/25 06:33:16;;;;;;;;;;;13.30;99.90;;;;;;7337003;19;109099;-73
2023/12/25 06:35:43;;;;;;;;;;;13.30;99.90;;;;;;7339037;19;109636;-73
2023/12/25 06:38:12;;;;;;;;;;;13.30;99.90;;;;;;7335775;19;109056;-73
2023/12/25 06:40:39;;;;;;;;;;;13.30;99.90;;;;;;7332946;19;109095;-74
2023/12/25 06:43:07;;;;;;;;;;;13.30;99.90;;;;;;7337127;19;109552;-73
2023/12/25 06:45:34;;;;;;;;;;;13.30;99.90;;;;;;7335230;19;109104;-73
2023/12/25 06:48:02;;;;;;;;;;;13.30;99.90;;;;;;7331618;19;111173;-73
2023/12/25 06:50:29;;;;;;;;;;;13.40;99.90;;;;;;7335745;19;109122;-73
2023/12/25 06:52:57;;;;;;;;;;;13.40;99.90;;;;;;7336120;19;109609;-73
2023/12/25 06:55:24;;;;;;;;;;;13.40;99.90;;;;;;7333435;19;109908;-74
2023/12/25 06:57:52;;;;;;;;;;;13.40;99.90;;;;;;7334187;19;108495;-73
2023/12/25 07:00:19;;;;;;;;;;;13.30;99.90;;;;;;7335582;19;109987;-73
2023/12/25 07:02:46;;;;;;;;;;;13.30;99.90;;;;;;7331833;19;109257;-73
2023/12/25 07:05:14;;;;;;;;;;;13.30;99.90;;;;;;7332418;19;110196;-73
2023/12/25 07:07:45;;;;;;;;;;;13.30;99.90;;;;;;7334438;19;113531;-73
2023/12/25 07:10:12;;;;;;;;;;;13.30;99.90;;;;;;7334737;19;109198;-73
2023/12/25 07:12:39;;;;;;;;;;;13.30;99.90;;;;;;7336098;19;108644;-73
2023/12/25 07:15:06;;;;;;;;;;;13.40;99.90;;;;;;7332490;19;110635;-73
2023/12/25 07:17:34;;;;;;;;;;;13.30;99.90;;;;;;7335358;19;110257;-74
2023/12/25 07:20:01;;;;;;;;;;;13.30;99.90;;;;;;7336730;19;108793;-73
2023/12/25 07:22:29;;;;;;;;;;;13.40;99.90;;;;;;7331475;19;110543;-74
2023/12/25 07:24:56;;;;;;;;;;;13.30;99.90;;;;;;7330497;19;109746;-74
2023/12/25 07:27:23;;;;;;;;;;;13.40;99.90;;;;;;7332578;19;112655;-73
2023/12/25 07:29:50;;;;;;;;;;;13.40;99.90;;;;;;7329451;19;108398;-73
2023/12/25 07:32:18;;;;;;;;;;;13.40;99.90;;;;;;7333695;19;108945;-73
2023/12/25 07:34:45;;;;;;;;;;;13.40;99.90;;;;;;7332337;19;112718;-73
2023/12/25 07:37:12;;;;;;;;;;;13.40;99.90;;;;;;7334953;19;108839;-73
2023/12/25 07:39:44;;;;;;;;;;;13.40;99.90;;;;;;7331540;19;109265;-73
2023/12/25 07:42:12;;;;;;;;;;;13.40;99.90;;;;;;7338012;19;109093;-73
2023/12/25 07:44:39;;;;;;;;;;;13.40;99.90;;;;;;7334088;19;109073;-73
2023/12/25 07:47:06;;;;;;;;;;;13.40;99.90;;;;;;7331369;19;109498;-73
2023/12/25 07:49:33;;;;;;;;;;;13.40;99.90;;;;;;7330504;19;109939;-73
2023/12/25 07:52:00;;;;;;;;;;;13.40;99.90;;;;;;7331588;19;108304;-73
2023/12/25 07:54:27;;;;;;;;;;;13.40;99.90;;;;;;7329570;19;109429;-73
2023/12/25 07:56:54;;;;;;;;;;;13.40;99.90;;;;;;7332506;19;113213;-73
2023/12/25 07:59:22;;;;;;;;;;;13.40;99.90;;;;;;7330968;19;110297;-73
2023/12/25 08:01:50;;;;;;;;;;;13.40;99.90;;;;;;7326215;19;110467;-73
2023/12/25 08:04:17;;;;;;;;;;;13.40;99.90;;;;;;7337322;19;108521;-72
2023/12/25 08:06:44;;;;;;;;;;;13.40;99.90;;;;;;7332008;19;110100;-73
2023/12/25 08:09:11;;;;;;;;;;;13.40;99.90;;;;;;7329337;19;110019;-73
2023/12/25 08:11:38;;;;;;;;;;;13.40;99.90;;;;;;7331099;19;109130;-74
2023/12/25 08:14:06;;;;;;;;;;;13.50;99.90;;;;;;7332564;19;109554;-74
2023/12/25 08:16:33;;;;;;;;;;;13.50;99.90;;;;;;7333066;19;108900;-73
2023/12/25 08:19:00;;;;;;;;;;;13.40;99.90;;;;;;7330879;19;108968;-73
2023/12/25 08:21:27;;;;;;;;;;;13.50;99.90;;;;;;7330424;19;110455;-73
2023/12/25 08:23:54;;;;;;;;;;;13.50;99.90;;;;;;7335603;19;108733;-72
2023/12/25 08:26:21;;;;;;;;;;;13.50;99.90;;;;;;7330777;19;109676;-73
2023/12/25 08:28:52;;;;;;;;;;;13.50;99.90;;;;;;7330410;19;108584;-73
2023/12/25 08:31:21;;;;;;;;;;;13.50;99.90;;;;;;7331325;19;108684;-73
2023/12/25 08:33:49;;;;;;;;;;;13.50;99.90;;;;;;7331919;19;112531;-72
2023/12/25 08:36:16;;;;;;;;;;;13.50;99.90;;;;;;7329662;19;110464;-75
2023/12/25 08:38:43;;;;;;;;;;;13.50;99.90;;;;;;7333675;19;108227;-73
2023/12/25 08:41:10;;;;;;;;;;;13.50;99.90;;;;;;7328458;19;110151;-73
2023/12/25 08:43:37;;;;;;;;;;;13.50;99.90;;;;;;7332626;19;108925;-73
2023/12/25 08:46:16;;;;;;;;;;;13.50;99.90;;;;;;7333979;19;110216;-73
2023/12/25 08:48:43;;;;;;;;;;;13.60;99.90;;;;;;7333115;19;108885;-72
2023/12/25 08:51:11;;;;;;;;;;;13.50;99.90;;;;;;7331137;19;111494;-74
2023/12/25 08:53:38;;;;;;;;;;;13.50;99.90;;;;;;7329199;19;110040;-73
2023/12/25 08:56:05;;;;;;;;;;;13.50;99.90;;;;;;7330037;19;109402;-72
2023/12/25 08:58:32;;;;;;;;;;;13.50;99.90;;;;;;7333697;19;108685;-72
2023/12/25 09:00:59;;;;;;;;;;;13.60;99.90;;;;;;7331107;19;109631;-72
2023/12/25 09:03:27;;;;;;;;;;;13.60;99.90;;;;;;7333479;19;108827;-70
2023/12/25 09:05:54;;;;;;;;;;;13.60;99.90;;;;;;7330199;19;110888;-72
2023/12/25 09:08:23;;;;;;;;;;;13.60;99.90;;;;;;7334855;19;109396;-71
2023/12/25 09:10:50;;;;;;;;;;;13.50;99.90;;;;;;7327841;19;110036;-73
2023/12/25 09:13:17;;;;;;;;;;;13.60;99.90;;;;;;7328212;19;109987;-74
2023/12/25 09:15:44;;;;;;;;;;;13.60;99.90;;;;;;7325487;19;108956;-75
2023/12/25 09:18:12;;;;;;;;;;;13.60;99.90;;;;;;7325779;19;108977;-76
2023/12/25 09:20:39;;;;;;;;;;;13.60;99.90;;;;;;7334657;19;109106;-75
2023/12/25 09:23:06;;;;;;;;;;;13.60;99.90;;;;;;7335780;19;110743;-75
2023/12/25 09:25:33;;;;;;;;;;;13.60;99.90;;;;;;7336343;19;109583;-75
2023/12/25 09:28:03;;;;;;;;;;;13.60;99.90;;;;;;7336541;19;109845;-76
2023/12/25 09:30:30;;;;;;;;;;;13.60;99.90;;;;;;7341923;19;110150;-77
2023/12/25 09:32:58;;;;;;;;;;;13.60;99.90;;;;;;7333560;19;109931;-74
2023/12/25 09:35:25;;;;;;;;;;;13.70;99.90;;;;;;7337799;19;108704;-73
2023/12/25 09:37:52;;;;;;;;;;;13.70;99.90;;;;;;7336811;19;108719;-71
2023/12/25 09:40:21;;;;;;;;;;;13.70;99.90;;;;;;7339143;19;109663;-73
2023/12/25 09:42:52;;;;;;;;;;;13.70;99.90;;;;;;7340130;19;108643;-71
2023/12/25 09:45:19;;;;;;;;;;;13.70;99.90;;;;;;7335671;19;109557;-72
2023/12/25 09:47:46;;;;;;;;;;;13.70;99.90;;;;;;7337881;19;109123;-72
2023/12/25 09:50:14;;;;;;;;;;;13.70;99.90;;;;;;7333807;19;110483;-72
2023/12/25 09:52:42;;;;;;;;;;;13.70;99.90;;;;;;7338944;19;109516;-73
2023/12/25 09:55:09;;;;;;;;;;;13.80;99.90;;;;;;7333605;19;108507;-73
2023/12/25 09:57:36;;;;;;;;;;;13.80;99.90;;;;;;7337680;19;109194;-73
2023/12/25 10:00:04;;;;;;;;;;;13.80;99.90;;;;;;7333846;19;109979;-73
2023/12/25 10:02:36;;;;;;;;;;;13.80;99.90;;;;;;7337408;19;108593;-73
2023/12/25 10:05:04;;;;;;;;;;;13.90;99.90;;;;;;7335464;19;108632;-72
2023/12/25 10:07:31;;;;;;;;;;;13.90;99.90;;;;;;7337831;19;109253;-73
2023/12/25 10:09:58;;;;;;;;;;;13.90;99.90;;;;;;7334092;19;111493;-73
2023/12/25 10:12:26;;;;;;;;;;;13.90;99.90;;;;;;7341347;19;109303;-73
2023/12/25 10:14:53;;;;;;;;;;;13.90;99.90;;;;;;7334094;19;108989;-77
2023/12/25 10:17:20;;;;;;;;;;;13.90;99.90;;;;;;7336165;19;110802;-75
2023/12/25 10:19:51;;;;;;;;;;;13.90;99.90;;;;;;7339004;19;110222;-75
2023/12/25 10:22:29;;;;;;;;;;;13.90;99.90;;;;;;7336179;19;108758;-74
2023/12/25 10:25:04;;;;;;;;;;;14.00;99.90;;;;;;7332314;19;109324;-73
2023/12/25 10:27:36;;;;;;;;;;;14.00;99.90;;;;;;7323542;19;110162;-74
2023/12/25 10:30:03;;;;;;;;;;;14.00;99.90;;;;;;7333132;19;109014;-74
2023/12/25 10:32:31;;;;;;;;;;;14.00;99.90;;;;;;7335013;19;110203;-72
2023/12/25 10:35:12;;;;;;;;;;;13.90;99.90;;;;;;7337756;19;109963;-73
2023/12/25 10:37:39;;;;;;;;;;;14.00;99.90;;;;;;7336391;19;108923;-72
2023/12/25 10:40:20;;;;;;;;;;;14.00;99.90;;;;;;7332951;19;110124;-72
2023/12/25 10:42:49;;;;;;;;;;;14.00;99.90;;;;;;7334750;19;109450;-72
2023/12/25 10:45:18;;;;;;;;;;;14.10;99.90;;;;;;7336525;19;108867;-72
2023/12/25 10:47:46;;;;;;;;;;;14.10;99.90;;;;;;7334527;19;111012;-73
2023/12/25 10:50:14;;;;;;;;;;;14.10;99.90;;;;;;7333847;19;109395;-73
2023/12/25 10:52:43;;;;;;;;;;;14.00;99.90;;;;;;7334690;19;109400;-72
2023/12/25 10:55:11;;;;;;;;;;;14.10;99.90;;;;;;7335710;19;113900;-72
2023/12/25 10:57:39;;;;;;;;;;;14.10;99.90;;;;;;7342894;19;108612;-72
2023/12/25 11:00:10;;;;;;;;;;;14.10;99.90;;;;;;7332110;19;110511;-72
2023/12/25 11:02:38;;;;;;;;;;;14.10;99.90;;;;;;7331782;19;109868;-72
2023/12/25 11:05:06;;;;;;;;;;;14.10;99.90;;;;;;7332691;19;110464;-73
2023/12/25 11:07:33;;;;;;;;;;;14.10;99.90;;;;;;7331913;19;109283;-72
2023/12/25 11:10:03;;;;;;;;;;;14.10;99.90;;;;;;7328937;19;111133;-73
2023/12/25 11:12:30;;;;;;;;;;;14.10;99.90;;;;;;7333053;19;109284;-75
2023/12/25 11:14:57;;;;;;;;;;;14.10;99.90;;;;;;7332920;19;109156;-72
2023/12/25 11:17:28;;;;;;;;;;;14.10;99.90;;;;;;7327447;19;112218;-72
2023/12/25 11:19:55;;;;;;;;;;;14.10;99.90;;;;;;7338688;19;110002;-72
2023/12/25 11:22:29;;;;;;;;;;;14.10;99.90;;;;;;7333118;19;111175;-72
2023/12/25 11:24:56;;;;;;;;;;;14.10;99.90;;;;;;7331292;19;108885;-72
2023/12/25 11:27:25;;;;;;;;;;;14.10;99.90;;;;;;7333700;19;110472;-72
2023/12/25 11:29:59;;;;;;;;;;;14.10;99.90;;;;;;7329744;19;110088;-73
2023/12/25 11:32:27;;;;;;;;;;;14.10;99.90;;;;;;7333805;19;109701;-73
2023/12/25 11:34:56;;;;;;;;;;;14.10;99.90;;;;;;7331479;19;111532;-73
2023/12/25 11:37:23;;;;;;;;;;;14.10;99.90;;;;;;7332909;19;109581;-72
2023/12/25 11:40:05;;;;;;;;;;;14.10;99.90;;;;;;7334272;19;109301;-72
2023/12/25 11:42:33;;;;;;;;;;;14.10;99.90;;;;;;7340218;19;112212;-72
2023/12/25 11:45:07;;;;;;;;;;;14.10;99.90;;;;;;7333768;19;109212;-73
2023/12/25 11:47:48;;;;;;;;;;;14.10;99.90;;;;;;7334657;19;113333;-73
2023/12/25 11:50:15;;;;;;;;;;;14.10;99.90;;;;;;7338294;19;108959;-73
2023/12/25 11:52:42;;;;;;;;;;;14.10;99.90;;;;;;7336784;19;109465;-72
2023/12/25 11:55:09;;;;;;;;;;;14.10;99.90;;;;;;7331286;19;109223;-72
2023/12/25 11:57:36;;;;;;;;;;;14.10;99.90;;;;;;7333670;19;109151;-73
2023/12/25 12:00:05;;;;;;;;;;;14.00;99.90;;;;;;7334861;19;109851;-72
2023/12/25 12:02:32;;;;;;;;;;;14.00;99.90;;;;;;7332329;19;109462;-73
2023/12/25 12:04:59;;;;;;;;;;;14.00;99.90;;;;;;7340339;19;108322;-72
2023/12/25 12:07:26;;;;;;;;;;;14.00;99.90;;;;;;7334049;19;110497;-73
2023/12/25 12:09:53;;;;;;;;;;;14.00;99.90;;;;;;7330297;19;109513;-74
2023/12/25 12:12:20;;;;;;;;;;;14.00;99.90;;;;;;7328964;19;109753;-73
2023/12/25 12:14:47;;;;;;;;;;;14.00;99.90;;;;;;7334034;19;110211;-73
2023/12/25 12:17:16;;;;;;;;;;;14.00;99.90;;;;;;7333239;19;110153;-73
2023/12/25 12:19:43;;;;;;;;;;;14.00;99.90;;;;;;7336203;19;108869;-73
2023/12/25 12:22:11;;;;;;;;;;;14.00;99.90;;;;;;7331975;19;109216;-73
2023/12/25 12:24:38;;;;;;;;;;;14.00;99.90;;;;;;7340055;19;109827;-72
2023/12/25 12:27:10;;;;;;;;;;;13.90;99.90;;;;;;7331812;19;109935;-73
2023/12/25 12:29:37;;;;;;;;;;;13.90;99.90;;;;;;7334449;19;108877;-72
2023/12/25 12:32:08;;;;;;;;;;;14.00;99.90;;;;;;7332755;19;109196;-73
2023/12/25 12:34:35;;;;;;;;;;;14.00;99.90;;;;;;7332641;19;109810;-74
2023/12/25 12:37:07;;;;;;;;;;;14.00;99.90;;;;;;7332888;19;108608;-73
2023/12/25 12:39:35;;;;;;;;;;;13.90;99.90;;;;;;7332687;19;108983;-72
2023/12/25 12:42:07;;;;;;;;;;;13.90;99.90;;;;;;7332907;19;109099;-72
2023/12/25 12:44:34;;;;;;;;;;;13.90;99.90;;;;;;7334863;19;108621;-73
2023/12/25 12:47:02;;;;;;;;;;;13.90;99.90;;;;;;7338687;19;108861;-73
2023/12/25 12:49:29;;;;;;;;;;;13.90;99.90;;;;;;7332600;19;109964;-72
2023/12/25 12:51:57;;;;;;;;;;;13.90;99.90;;;;;;7333589;19;108564;-72
2023/12/25 12:54:24;;;;;;;;;;;13.90;99.90;;;;;;7333252;19;109099;-72
2023/12/25 12:56:51;;;;;;;;;;;13.80;99.90;;;;;;7332142;19;108959;-73
2023/12/25 12:59:18;;;;;;;;;;;13.80;99.90;;;;;;7331770;19;109027;-73
2023/12/25 13:01:45;;;;;;;;;;;13.80;99.90;;;;;;7333027;19;109757;-73
2023/12/25 13:04:14;;;;;;;;;;;13.80;99.90;;;;;;7331272;19;111084;-73
2023/12/25 13:06:42;;;;;;;;;;;13.80;99.90;;;;;;7332081;19;109130;-73
2023/12/25 13:09:09;;;;;;;;;;;13.80;99.90;;;;;;7334091;19;110159;-79
2023/12/25 13:11:36;;;;;;;;;;;13.90;99.90;;;;;;7328958;19;109054;-77
2023/12/25 13:14:03;;;;;;;;;;;13.90;99.90;;;;;;7330174;19;109330;-79
2023/12/25 13:16:30;;;;;;;;;;;13.80;99.90;;;;;;7330219;19;109239;-78
2023/12/25 13:18:57;;;;;;;;;;;13.80;99.90;;;;;;7330837;19;108880;-77
2023/12/25 13:21:25;;;;;;;;;;;13.80;99.90;;;;;;7331305;19;112408;-79
2023/12/25 13:23:52;;;;;;;;;;;13.80;99.90;;;;;;7330104;19;109309;-76
2023/12/25 13:26:19;;;;;;;;;;;13.90;99.90;;;;;;7329228;19;110334;-73
2023/12/25 13:28:49;;;;;;;;;;;13.80;99.90;;;;;;7330135;19;110048;-74
2023/12/25 13:31:18;;;;;;;;;;;13.90;99.90;;;;;;7336562;19;108505;-73
2023/12/25 13:33:45;;;;;;;;;;;13.80;99.90;;;;;;7330808;19;110251;-74
2023/12/25 13:36:13;;;;;;;;;;;13.80;99.90;;;;;;7327957;19;110280;-74
2023/12/25 13:38:40;;;;;;;;;;;13.80;99.90;;;;;;7331678;19;108725;-74
2023/12/25 13:41:08;;;;;;;;;;;13.90;99.90;;;;;;7329978;19;109794;-73
2023/12/25 13:43:35;;;;;;;;;;;13.90;99.90;;;;;;7331916;19;110387;-74
2023/12/25 13:46:03;;;;;;;;;;;13.80;99.90;;;;;;7333586;19;108762;-73
2023/12/25 13:48:31;;;;;;;;;;;13.90;99.90;;;;;;7331261;19;110353;-72
2023/12/25 13:50:59;;;;;;;;;;;13.90;99.90;;;;;;7326750;19;111107;-73
2023/12/25 13:53:26;;;;;;;;;;;13.90;99.90;;;;;;7337527;19;108891;-72
2023/12/25 13:55:54;;;;;;;;;;;13.90;99.90;;;;;;7332354;19;108505;-73
2023/12/25 13:58:21;;;;;;;;;;;13.90;99.90;;;;;;7332538;19;110916;-73
2023/12/25 14:00:48;;;;;;;;;;;13.90;99.90;;;;;;7334039;19;110612;-73
2023/12/25 14:03:17;;;;;;;;;;;13.80;99.90;;;;;;7333114;19;109455;-73
2023/12/25 14:05:44;;;;;;;;;;;13.90;99.90;;;;;;7330953;19;110556;-73
2023/12/25 14:08:11;;;;;;;;;;;13.90;99.90;;;;;;7338245;19;110279;-73